Time;durP1;ratioP1;P1;durP2;ratioP2;P2;SDS_P1;SDS_P2;PMS_P1;PMS_P2;Temp;Humidity;BMP_temperature;BMP_pressure;BME280_temperature;BME280_humidity;BME280_pressure;Samples;Min_cycle;Max_cycle;Signal;HPM_P1;HPM_P2
2021/11/05 00:02:39;;;;;;;18.80;12.95;;;;;;;6.20;70.05;99692.56;10538084;28;20355;-63
2021/11/05 00:07:42;;;;;;;20.63;13.07;;;;;;;6.27;69.86;99682.75;10530148;28;20051;-63
2021/11/05 00:12:45;;;;;;;182.70;22.85;;;;;;;6.20;69.63;99697.78;10551474;28;20044;-63
2021/11/05 00:17:47;;;;;;;770.00;28.42;;;;;;;6.09;69.65;99702.59;10554679;28;20355;-63
2021/11/05 00:22:49;;;;;;;623.80;20.90;;;;;;;5.89;69.98;99709.59;10521053;28;20419;-63
2021/11/05 00:27:51;;;;;;;573.58;23.63;;;;;;;5.78;69.89;99712.63;10551458;28;20068;-63
2021/11/05 00:32:52;;;;;;;641.15;22.08;;;;;;;5.69;69.92;99714.81;10546905;28;20058;-63
2021/11/05 00:37:54;;;;;;;657.85;27.30;;;;;;;5.62;70.03;99727.19;10529517;28;20052;-63
2021/11/05 00:42:56;;;;;;;83.45;12.48;;;;;;;5.39;70.35;99735.94;10511997;28;20149;-63
2021/11/05 00:47:58;;;;;;;28.70;14.27;;;;;;;5.38;70.29;99738.59;10530369;28;20312;-63
2021/11/05 00:53:00;;;;;;;244.05;32.92;;;;;;;5.40;70.57;99747.16;10530744;28;20052;-63
2021/11/05 00:58:01;;;;;;;26.58;14.35;;;;;;;5.36;70.68;99763.75;10532641;28;20138;-63
2021/11/05 01:03:03;;;;;;;21.80;13.60;;;;;;;5.55;70.82;99764.69;10512737;28;20498;-63
2021/11/05 01:08:07;;;;;;;310.92;22.75;;;;;;;5.71;70.00;99768.31;10546294;28;20053;-63
2021/11/05 01:13:08;;;;;;;909.42;27.48;;;;;;;5.54;70.12;99770.78;10516712;28;20409;-63
2021/11/05 01:18:10;;;;;;;582.88;19.88;;;;;;;5.44;70.39;99782.44;10535845;27;20051;-63
2021/11/05 01:23:12;;;;;;;676.40;22.13;;;;;;;5.39;70.29;99781.78;10547844;28;20047;-64
2021/11/05 01:28:13;;;;;;;461.52;21.60;;;;;;;5.37;70.23;99788.78;10512670;28;20054;-64
2021/11/05 01:33:16;;;;;;;110.63;15.93;;;;;;;5.54;70.15;99804.50;10524861;28;20093;-64
2021/11/05 01:38:18;;;;;;;376.98;18.67;;;;;;;5.66;69.90;99806.56;10539778;28;20050;-64
2021/11/05 01:43:20;;;;;;;498.85;19.05;;;;;;;5.53;70.05;99805.41;10543476;28;20055;-63
2021/11/05 01:48:22;;;;;;;549.08;21.55;;;;;;;5.37;70.08;99807.75;10520924;28;20510;-63
2021/11/05 01:53:25;;;;;;;279.98;17.25;;;;;;;5.21;69.80;99811.88;10521196;28;20730;-63
2021/11/05 01:58:26;;;;;;;16.65;9.32;;;;;;;5.18;70.23;99818.94;10516637;28;20048;-63
2021/11/05 02:03:28;;;;;;;843.70;25.08;;;;;;;5.08;69.97;99820.22;10549292;28;20044;-63
2021/11/05 02:08:33;;;;;;;1212.38;31.02;;;;;;;5.03;70.49;99820.38;10538691;28;20526;-62
2021/11/05 02:13:37;;;;;;;1076.22;30.10;;;;;;;4.91;70.26;99830.38;10520576;28;20170;-63
2021/11/05 02:18:42;;;;;;;35.03;8.93;;;;;;;4.84;70.73;99840.13;10512959;28;20043;-63
2021/11/05 02:23:44;;;;;;;15.25;9.48;;;;;;;5.06;70.62;99850.53;10533268;28;20044;-63
2021/11/05 02:28:46;;;;;;;19.75;10.48;;;;;;;5.29;70.42;99853.91;10509431;28;20044;-62
2021/11/05 02:33:48;;;;;;;27.50;12.38;;;;;;;5.44;70.06;99868.03;10527850;28;20071;-63
2021/11/05 02:38:50;;;;;;;299.80;16.88;;;;;;;5.54;69.83;99871.94;10534851;28;20058;-63
2021/11/05 02:43:52;;;;;;;232.63;15.50;;;;;;;5.68;69.78;99863.56;10527127;28;20044;-63
2021/11/05 02:49:03;;;;;;;440.17;18.00;;;;;;;5.66;69.31;99865.41;10520885;28;20055;-63
2021/11/05 02:54:05;;;;;;;332.97;15.50;;;;;;;5.65;69.62;99869.75;10520449;28;20048;-63
2021/11/05 02:59:07;;;;;;;160.63;15.55;;;;;;;5.68;69.51;99859.25;10508110;28;20052;-63
2021/11/05 03:04:10;;;;;;;81.72;16.75;;;;;;;5.53;69.41;99865.88;10518745;28;20054;-63
2021/11/05 03:09:14;;;;;;;579.58;24.02;;;;;;;5.17;69.44;99885.50;10518388;28;20056;-64
2021/11/05 03:14:16;;;;;;;22.20;11.90;;;;;;;5.04;70.13;99906.78;10515920;28;20056;-62
2021/11/05 03:19:18;;;;;;;15.85;10.38;;;;;;;4.97;70.41;99913.06;10533734;28;20113;-63
2021/11/05 03:24:20;;;;;;;15.07;9.73;;;;;;;5.05;70.29;99926.59;10556862;28;20051;-62
2021/11/05 03:29:23;;;;;;;21.27;12.25;;;;;;;5.15;70.43;99935.72;10560128;28;20048;-63
2021/11/05 03:34:24;;;;;;;38.38;13.60;;;;;;;5.31;70.08;99934.25;10522686;28;20058;-62
2021/11/05 03:39:26;;;;;;;271.30;17.75;;;;;;;5.31;69.72;99945.44;10522908;28;20523;-63
2021/11/05 03:44:28;;;;;;;105.22;13.15;;;;;;;5.25;69.91;99947.41;10522331;28;20507;-63
2021/11/05 03:49:30;;;;;;;25.92;13.35;;;;;;;5.36;69.98;99960.84;10522838;28;20415;-63
2021/11/05 03:54:32;;;;;;;40.95;15.68;;;;;;;5.51;69.87;99975.81;10521983;28;20400;-63
2021/11/05 03:59:33;;;;;;;35.35;14.23;;;;;;;5.68;69.76;99975.16;10521514;28;20051;-63
2021/11/05 04:04:35;;;;;;;21.35;11.65;;;;;;;5.67;69.68;99983.84;10517902;28;20054;-63
2021/11/05 04:09:37;;;;;;;39.30;14.68;;;;;;;5.70;69.70;99991.50;10516393;28;20069;-63
2021/11/05 04:14:38;;;;;;;43.97;15.23;;;;;;;5.73;69.54;100007.81;10530723;28;20052;-63
2021/11/05 04:19:41;;;;;;;21.63;11.68;;;;;;;5.75;69.59;100008.59;10555919;28;20838;-63
2021/11/05 04:24:43;;;;;;;23.55;12.73;;;;;;;5.57;69.68;100021.44;10555601;28;20048;-63
2021/11/05 04:29:46;;;;;;;22.67;12.48;;;;;;;5.68;70.01;100022.69;10546795;27;20048;-63
2021/11/05 04:34:48;;;;;;;43.60;15.60;;;;;;;5.85;69.66;100014.25;10513453;28;20511;-62
2021/11/05 04:39:50;;;;;;;40.33;16.70;;;;;;;5.86;69.76;100029.78;10512837;28;20749;-62
2021/11/05 04:44:51;;;;;;;39.33;18.15;;;;;;;5.84;69.95;100034.19;10531840;28;20050;-63
2021/11/05 04:49:53;;;;;;;29.52;18.10;;;;;;;5.82;70.34;100035.16;10554825;28;20124;-62
2021/11/05 04:54:55;;;;;;;33.47;19.05;;;;;;;5.90;70.27;100036.53;10552246;28;20048;-63
2021/11/05 04:59:56;;;;;;;41.83;16.95;;;;;;;5.93;69.66;100030.38;10554101;28;20055;-63
2021/11/05 05:04:59;;;;;;;35.25;19.63;;;;;;;5.90;69.85;100044.31;10554487;28;20050;-62
2021/11/05 05:10:00;;;;;;;34.97;19.92;;;;;;;5.98;69.97;100051.84;10553825;27;20143;-63
2021/11/05 05:15:04;;;;;;;48.35;23.92;;;;;;;6.03;70.05;100058.53;10532895;28;20060;-63
2021/11/05 05:20:08;;;;;;;52.97;32.33;;;;;;;6.14;70.15;100061.53;10511557;28;20058;-63
2021/11/05 05:25:12;;;;;;;63.28;23.83;;;;;;;6.24;69.76;100064.63;10509948;28;20047;-63
2021/11/05 05:30:15;;;;;;;45.63;20.33;;;;;;;6.29;69.67;100075.69;10511288;28;20577;-62
2021/11/05 05:35:19;;;;;;;52.53;23.08;;;;;;;6.29;69.63;100079.16;10510802;28;20063;-63
2021/11/05 05:40:22;;;;;;;52.83;20.33;;;;;;;6.39;69.40;100083.97;10509736;28;20055;-63
2021/11/05 05:45:25;;;;;;;60.33;21.50;;;;;;;6.32;69.15;100092.03;10535963;28;20054;-62
2021/11/05 05:50:27;;;;;;;60.67;21.75;;;;;;;6.30;69.11;100101.63;10553040;28;20290;-63
2021/11/05 05:55:29;;;;;;;58.90;22.60;;;;;;;6.37;69.23;100111.78;10510344;28;20052;-63
2021/11/05 06:00:34;;;;;;;57.80;21.85;;;;;;;6.45;69.15;100118.31;10509923;28;20048;-64
2021/11/05 06:05:36;;;;;;;63.45;26.48;;;;;;;6.51;69.36;100125.88;10510135;28;20540;-64
2021/11/05 06:10:38;;;;;;;41.20;22.05;;;;;;;6.63;69.26;100133.22;10509888;28;20044;-64
2021/11/05 06:15:40;;;;;;;56.20;24.52;;;;;;;6.62;69.23;100143.63;10536335;28;20059;-63
2021/11/05 06:20:42;;;;;;;52.15;26.95;;;;;;;6.53;69.55;100144.03;10551428;28;20039;-64
2021/11/05 06:25:44;;;;;;;58.70;33.42;;;;;;;6.62;69.58;100154.88;10510218;28;20744;-64
2021/11/05 06:30:45;;;;;;;47.40;26.45;;;;;;;6.69;69.62;100155.50;10510266;28;20058;-64
2021/11/05 06:35:48;;;;;;;48.58;26.02;;;;;;;6.74;69.58;100161.34;10509384;28;20066;-63
2021/11/05 06:40:49;;;;;;;49.83;28.25;;;;;;;6.86;69.34;100177.28;10509716;28;20538;-64
2021/11/05 06:45:51;;;;;;;50.53;27.55;;;;;;;6.92;69.32;100178.78;10536458;28;20051;-64
2021/11/05 06:50:56;;;;;;;49.38;27.88;;;;;;;6.90;69.44;100202.25;10551321;28;20051;-64
2021/11/05 06:55:58;;;;;;;52.60;27.30;;;;;;;7.01;69.39;100204.41;10551352;28;20142;-64
2021/11/05 07:01:00;;;;;;;49.38;26.85;;;;;;;7.06;69.34;100210.28;10558748;27;20418;-63
2021/11/05 07:06:02;;;;;;;49.53;27.02;;;;;;;7.14;69.17;100227.25;10529235;28;20044;-63
2021/11/05 07:11:04;;;;;;;79.30;30.10;;;;;;;7.29;69.01;100230.97;10558457;27;20052;-63
2021/11/05 07:16:06;;;;;;;82.57;31.20;;;;;;;7.38;68.63;100238.41;10558111;28;20414;-63
2021/11/05 07:21:12;;;;;;;75.53;31.33;;;;;;;7.44;68.56;100256.38;10555965;28;20047;-63
2021/11/05 07:26:14;;;;;;;61.58;28.45;;;;;;;7.55;68.42;100267.16;10558607;28;20312;-69
2021/11/05 07:31:15;;;;;;;49.67;27.52;;;;;;;7.56;68.30;100276.69;10550046;28;20054;-69
2021/11/05 07:36:17;;;;;;;49.08;27.08;;;;;;;7.42;68.50;100289.41;10554536;28;20055;-69
2021/11/05 07:41:21;;;;;;;44.28;25.58;;;;;;;7.53;68.69;100307.19;10547688;28;20454;-69
2021/11/05 07:46:23;;;;;;;47.00;26.08;;;;;;;7.69;68.40;100313.47;10558163;28;20217;-69
2021/11/05 07:51:24;;;;;;;55.45;26.80;;;;;;;7.83;68.06;100330.16;10557155;28;20047;-69
2021/11/05 07:56:26;;;;;;;49.85;26.55;;;;;;;7.87;68.07;100336.97;10556814;28;20078;-69
2021/11/05 08:01:35;;;;;;;45.15;25.52;;;;;;;7.92;68.26;100350.63;10557229;28;20441;-68
2021/11/05 08:06:36;;;;;;;43.38;25.65;;;;;;;7.95;67.74;100362.69;10529415;28;20051;-69
2021/11/05 08:11:38;;;;;;;46.47;25.17;;;;;;;7.96;67.57;100367.81;10513995;28;20131;-69
2021/11/05 08:16:40;;;;;;;50.70;27.15;;;;;;;8.07;67.61;100379.53;10515655;28;20064;-70
2021/11/05 08:21:41;;;;;;;54.55;28.95;;;;;;;8.25;67.29;100390.06;10513306;28;20393;-69
2021/11/05 08:26:43;;;;;;;53.63;29.48;;;;;;;8.31;67.40;100395.00;10512397;28;20374;-69
2021/11/05 08:31:45;;;;;;;54.85;29.75;;;;;;;8.47;67.10;100409.06;10513684;28;20052;-69
2021/11/05 08:36:47;;;;;;;61.75;29.65;;;;;;;8.67;67.15;100414.25;10521929;28;20106;-69
2021/11/05 08:41:49;;;;;;;52.75;25.95;;;;;;;8.76;66.94;100415.59;10556081;28;20070;-69
2021/11/05 08:46:50;;;;;;;40.10;24.35;;;;;;;8.75;67.02;100414.75;10552157;28;20051;-69
2021/11/05 08:51:54;;;;;;;36.40;23.40;;;;;;;8.73;67.08;100432.22;10553705;28;20054;-67
2021/11/05 08:56:55;;;;;;;41.60;23.75;;;;;;;8.70;66.86;100434.13;10554334;28;20055;-71
2021/11/05 09:01:57;;;;;;;43.83;25.52;;;;;;;8.76;66.51;100447.75;10553758;28;20485;-72
2021/11/05 09:06:59;;;;;;;45.92;25.90;;;;;;;8.63;66.70;100451.78;10554507;28;20051;-76
2021/11/05 09:12:01;;;;;;;44.58;25.95;;;;;;;8.53;67.00;100452.25;10552467;28;20504;-72
2021/11/05 09:17:03;;;;;;;42.05;25.67;;;;;;;8.53;66.86;100465.28;10550303;28;20066;-72
2021/11/05 09:22:05;;;;;;;38.20;24.17;;;;;;;8.43;67.07;100469.22;10550701;28;20082;-69
2021/11/05 09:27:07;;;;;;;43.10;26.77;;;;;;;8.51;67.06;100475.78;10553415;28;20057;-70
2021/11/05 09:32:09;;;;;;;45.13;25.98;;;;;;;8.48;66.99;100485.50;10524356;28;20044;-72
2021/11/05 09:37:10;;;;;;;41.58;25.27;;;;;;;8.49;66.85;100490.66;10546218;28;20049;-73
2021/11/05 09:42:14;;;;;;;39.80;25.33;;;;;;;8.50;66.79;100504.53;10552951;28;20525;-69
2021/11/05 09:47:16;;;;;;;37.17;24.15;;;;;;;8.37;67.02;100506.81;10552423;28;20250;-73
2021/11/05 09:52:17;;;;;;;41.42;24.40;;;;;;;8.45;66.83;100515.16;10538429;28;20464;-74
2021/11/05 09:57:20;;;;;;;37.08;22.35;;;;;;;8.52;66.83;100514.00;10551397;28;20142;-69
2021/11/05 10:02:22;;;;;;;38.90;22.50;;;;;;;8.69;66.83;100523.69;10551997;28;20091;-72
2021/11/05 10:07:26;;;;;;;37.97;22.98;;;;;;;8.90;66.35;100528.00;10551222;28;20047;-72
2021/11/05 10:12:29;;;;;;;38.17;21.88;;;;;;;8.93;66.28;100519.19;10550449;28;20485;-71
2021/11/05 10:17:32;;;;;;;34.30;22.60;;;;;;;8.88;66.28;100514.16;10516091;28;20060;-72
2021/11/05 10:22:49;;;;;;;35.83;21.98;;;;;;;8.94;66.26;100519.13;10509726;28;20048;-72
2021/11/05 10:28:24;;;;;;;32.85;21.90;;;;;;;9.52;64.93;100525.19;10510474;28;20055;-72
2021/11/05 10:33:30;;;;;;;35.33;22.77;;;;;;;10.09;63.88;100527.72;10514663;28;20050;-72
2021/11/05 10:38:36;;;;;;;26.92;19.02;;;;;;;9.99;63.99;100543.91;10518950;28;20178;-72
2021/11/05 10:43:44;;;;;;;36.72;20.75;;;;;;;10.11;63.59;100544.16;10558433;28;20104;-72
2021/11/05 10:48:45;;;;;;;30.35;20.13;;;;;;;9.69;64.45;100534.91;10557363;28;20127;-71
2021/11/05 10:53:47;;;;;;;30.88;18.55;;;;;;;9.62;64.46;100535.16;10560733;28;20048;-71
2021/11/05 10:58:49;;;;;;;26.13;17.60;;;;;;;9.82;63.90;100538.63;10556685;28;20164;-72
2021/11/05 11:03:59;;;;;;;24.60;16.65;;;;;;;10.04;63.37;100545.38;10558198;28;20079;-72
2021/11/05 11:09:13;;;;;;;27.33;18.05;;;;;;;10.21;62.79;100549.78;10559091;28;20586;-72
2021/11/05 11:14:18;;;;;;;26.08;16.70;;;;;;;10.33;62.92;100554.44;10556936;28;20052;-71
2021/11/05 11:19:23;;;;;;;24.55;17.42;;;;;;;10.45;62.88;100553.81;10558775;28;20209;-71
2021/11/05 11:24:28;;;;;;;24.05;16.50;;;;;;;10.72;62.32;100552.47;10558623;28;20146;-71
2021/11/05 11:29:30;;;;;;;24.05;16.67;;;;;;;11.02;62.02;100552.66;10549335;28;20130;-72
2021/11/05 11:34:32;;;;;;;20.60;15.52;;;;;;;11.05;61.41;100552.53;10535241;28;20137;-72
2021/11/05 11:39:34;;;;;;;23.70;15.93;;;;;;;11.08;61.68;100547.13;10517186;28;20051;-72
2021/11/05 11:44:37;;;;;;;21.38;15.07;;;;;;;11.32;60.88;100555.50;10519908;28;20094;-71
2021/11/05 11:49:38;;;;;;;19.38;13.30;;;;;;;11.49;60.58;100558.88;10516208;28;20733;-71
2021/11/05 11:54:42;;;;;;;17.50;12.13;;;;;;;11.54;59.75;100563.88;10526537;28;20130;-70
2021/11/05 12:00:03;;;;;;;16.42;11.05;;;;;;;11.30;59.24;100568.63;10556621;28;20051;-71
2021/11/05 12:05:31;;;;;;;15.43;10.33;;;;;;;10.96;58.96;100566.06;10557074;28;20044;-70
2021/11/05 12:10:32;;;;;;;11.65;8.55;;;;;;;11.13;58.86;100568.69;10551212;28;20556;-71
2021/11/05 12:15:34;;;;;;;13.52;9.43;;;;;;;11.13;58.42;100582.59;10556636;28;20058;-70
2021/11/05 12:20:38;;;;;;;14.25;9.07;;;;;;;11.11;58.33;100586.25;10545074;28;20143;-70
2021/11/05 12:26:11;;;;;;;12.90;8.77;;;;;;;10.96;57.69;100590.47;10513808;28;20058;-70
2021/11/05 12:31:27;;;;;;;14.23;9.48;;;;;;;10.96;57.83;100600.06;10514774;28;20423;-69
2021/11/05 12:36:49;;;;;;;11.50;8.75;;;;;;;11.03;57.44;100599.69;10514308;28;20075;-71
2021/11/05 12:42:06;;;;;;;15.02;7.43;;;;;;;11.01;57.99;100608.56;10514505;28;20060;-69
2021/11/05 12:47:08;;;;;;;13.43;8.63;;;;;;;11.08;57.72;100605.56;10513422;28;20048;-70
2021/11/05 12:52:10;;;;;;;11.73;8.65;;;;;;;10.96;58.35;100606.16;10513400;28;20058;-69
2021/11/05 12:57:11;;;;;;;10.73;7.20;;;;;;;11.07;57.71;100616.94;10511317;28;20052;-69
2021/11/05 13:02:13;;;;;;;11.30;7.90;;;;;;;11.12;57.59;100620.19;10512912;28;20055;-69
2021/11/05 13:07:15;;;;;;;10.15;6.75;;;;;;;11.11;57.47;100633.38;10512304;28;20044;-69
2021/11/05 13:12:19;;;;;;;9.55;6.55;;;;;;;10.99;57.32;100633.97;10511025;28;20081;-69
2021/11/05 13:17:34;;;;;;;11.07;6.00;;;;;;;10.84;57.89;100639.94;10511889;28;20083;-69
2021/11/05 13:22:39;;;;;;;9.75;6.90;;;;;;;10.71;58.59;100638.84;10511836;28;20147;-69
2021/11/05 13:27:45;;;;;;;10.10;6.65;;;;;;;10.62;59.27;100650.63;10511612;28;20058;-69
2021/11/05 13:32:54;;;;;;;9.85;6.60;;;;;;;10.54;59.50;100660.63;10511705;28;20309;-69
2021/11/05 13:38:14;;;;;;;8.40;6.50;;;;;;;10.41;59.47;100662.97;10511786;28;20139;-69
2021/11/05 13:43:18;;;;;;;10.38;6.00;;;;;;;10.56;59.76;100671.00;10529326;28;20154;-70
2021/11/05 13:48:28;;;;;;;11.35;6.40;;;;;;;10.76;59.95;100670.88;10550523;28;20134;-70
2021/11/05 13:53:30;;;;;;;9.60;6.25;;;;;;;10.94;59.63;100675.19;10544324;28;20259;-70
2021/11/05 13:58:32;;;;;;;10.75;6.40;;;;;;;10.79;59.01;100674.19;10537430;28;20642;-69
2021/11/05 14:03:34;;;;;;;10.40;6.43;;;;;;;10.79;59.32;100678.56;10524719;28;20133;-69
2021/11/05 14:08:48;;;;;;;11.60;6.40;;;;;;;10.78;59.28;100677.72;10533367;28;20058;-70
2021/11/05 14:13:50;;;;;;;10.88;5.90;;;;;;;10.71;59.40;100689.41;10539645;28;20058;-70
2021/11/05 14:19:26;;;;;;;10.30;6.38;;;;;;;10.56;59.34;100697.16;10536541;28;20303;-69
2021/11/05 14:24:35;;;;;;;9.90;6.65;;;;;;;10.81;59.42;100685.41;10481961;28;20051;-69
2021/11/05 14:29:40;;;;;;;12.57;6.65;;;;;;;10.69;59.34;100693.84;10518050;28;20052;-70
2021/11/05 14:34:55;;;;;;;10.95;6.00;;;;;;;10.59;59.17;100695.22;10518828;28;20040;-70
2021/11/05 14:40:00;;;;;;;9.82;5.47;;;;;;;10.48;60.10;100702.75;10513655;28;20124;-70
2021/11/05 14:45:23;;;;;;;9.35;6.32;;;;;;;10.29;60.43;100704.50;10527770;28;20054;-71
2021/11/05 14:50:30;;;;;;;11.55;6.88;;;;;;;10.13;61.23;100703.53;10517957;28;20055;-70
2021/11/05 14:55:42;;;;;;;11.45;6.93;;;;;;;9.83;61.96;100704.91;10520121;28;20054;-70
2021/11/05 15:00:57;;;;;;;13.95;6.80;;;;;;;9.72;62.41;100705.38;10511056;28;20371;-70
2021/11/05 15:06:04;;;;;;;12.02;8.02;;;;;;;9.50;63.20;100720.25;10511564;28;20062;-70
2021/11/05 15:11:22;;;;;;;10.77;6.60;;;;;;;9.26;63.39;100724.72;10505796;28;20051;-70
2021/11/05 15:16:24;;;;;;;11.07;6.43;;;;;;;8.99;64.13;100731.09;10537081;28;20052;-70
2021/11/05 15:21:27;;;;;;;12.63;7.18;;;;;;;8.89;64.68;100740.22;10533108;28;20054;-70
2021/11/05 15:26:29;;;;;;;11.63;7.03;;;;;;;8.77;64.74;100738.91;10541753;28;20415;-70
2021/11/05 15:31:31;;;;;;;13.50;6.50;;;;;;;8.66;65.17;100738.50;10524609;28;20294;-70
2021/11/05 15:36:32;;;;;;;13.65;7.10;;;;;;;8.55;65.59;100737.19;10534471;28;20060;-71
2021/11/05 15:41:34;;;;;;;10.68;6.32;;;;;;;8.53;65.71;100741.63;10542472;28;20043;-70
2021/11/05 15:46:36;;;;;;;10.52;6.40;;;;;;;8.55;65.90;100739.81;10540219;28;20099;-71
2021/11/05 15:51:37;;;;;;;11.15;6.45;;;;;;;8.59;66.00;100751.81;10543300;28;20046;-71
2021/11/05 15:56:39;;;;;;;12.48;6.82;;;;;;;8.71;66.11;100748.72;10538792;28;20108;-71
2021/11/05 16:01:42;;;;;;;18.13;10.45;;;;;;;8.77;65.94;100751.97;10526413;28;20496;-70
2021/11/05 16:06:44;;;;;;;19.88;13.07;;;;;;;8.73;66.16;100757.34;10535209;28;20048;-71
2021/11/05 16:11:47;;;;;;;15.25;10.10;;;;;;;8.71;66.28;100760.03;10532723;28;20051;-71
2021/11/05 16:16:49;;;;;;;11.98;7.35;;;;;;;8.72;65.98;100768.69;10522660;28;20135;-71
2021/11/05 16:21:51;;;;;;;13.02;7.93;;;;;;;8.72;66.10;100773.91;10517823;28;20082;-71
2021/11/05 16:26:53;;;;;;;12.55;7.70;;;;;;;8.67;66.22;100775.84;10539393;28;20062;-71
2021/11/05 16:31:54;;;;;;;11.52;7.60;;;;;;;8.60;66.24;100779.59;10527766;28;20050;-70
2021/11/05 16:36:56;;;;;;;15.50;9.18;;;;;;;8.50;66.45;100804.31;10515173;28;20055;-71
2021/11/05 16:41:58;;;;;;;12.52;8.20;;;;;;;8.24;66.73;100817.47;10512889;28;20534;-71
2021/11/05 16:47:01;;;;;;;14.98;8.15;;;;;;;8.02;67.13;100819.94;10544122;28;20047;-71
2021/11/05 16:52:04;;;;;;;13.60;7.70;;;;;;;7.96;67.13;100831.44;10516081;28;20056;-67
2021/11/05 16:57:06;;;;;;;14.95;8.68;;;;;;;7.81;67.36;100831.94;10532798;28;20048;-68
2021/11/05 17:02:07;;;;;;;12.77;9.38;;;;;;;7.91;67.52;100841.19;10550384;28;20048;-69
2021/11/05 17:07:10;;;;;;;16.70;9.52;;;;;;;8.02;67.54;100841.63;10519593;28;20294;-69
2021/11/05 17:12:12;;;;;;;14.40;10.32;;;;;;;8.16;67.51;100840.34;10513377;28;20056;-69
2021/11/05 17:17:14;;;;;;;14.45;10.63;;;;;;;8.20;67.33;100842.75;10511393;28;20214;-70
2021/11/05 17:22:15;;;;;;;18.42;10.98;;;;;;;8.20;67.39;100852.38;10522513;28;20143;-69
2021/11/05 17:27:18;;;;;;;20.95;12.20;;;;;;;8.12;67.46;100854.38;10552199;28;20224;-69
2021/11/05 17:32:24;;;;;;;22.13;13.50;;;;;;;8.00;67.74;100866.88;10520622;28;20151;-68
2021/11/05 17:37:26;;;;;;;20.67;12.60;;;;;;;7.96;67.55;100874.84;10551759;28;20135;-69
2021/11/05 17:42:28;;;;;;;20.48;12.65;;;;;;;7.80;68.06;100884.09;10529375;28;20101;-69
2021/11/05 17:47:30;;;;;;;18.42;10.02;;;;;;;7.60;68.39;100895.16;10550367;28;20052;-69
2021/11/05 17:52:33;;;;;;;17.80;11.00;;;;;;;7.55;68.55;100899.66;10550457;28;20050;-69
2021/11/05 17:57:36;;;;;;;17.88;12.07;;;;;;;7.63;68.55;100895.06;10521960;28;20055;-66
2021/11/05 18:03:04;;;;;;;19.60;12.35;;;;;;;7.65;68.34;100903.66;10529324;28;20055;-64
2021/11/05 18:08:06;;;;;;;21.50;13.93;;;;;;;7.67;68.33;100894.06;10539085;28;20130;-64
2021/11/05 18:13:09;;;;;;;18.08;12.85;;;;;;;7.77;68.47;100900.66;10508270;28;20662;-64
2021/11/05 18:18:11;;;;;;;21.65;11.43;;;;;;;7.69;68.38;100912.25;10516902;28;20461;-64
2021/11/05 18:23:13;;;;;;;19.17;13.00;;;;;;;7.47;68.47;100914.66;10531035;28;20138;-64
2021/11/05 18:28:15;;;;;;;17.98;12.35;;;;;;;7.39;68.63;100919.25;10543539;28;20043;-64
2021/11/05 18:33:18;;;;;;;24.67;13.45;;;;;;;7.32;68.70;100920.38;10520760;28;20083;-64
2021/11/05 18:38:20;;;;;;;23.50;14.43;;;;;;;7.24;68.80;100926.69;10537435;28;20052;-64
2021/11/05 18:43:22;;;;;;;35.95;16.67;;;;;;;7.22;68.58;100931.09;10548933;28;20146;-65
2021/11/05 18:48:29;;;;;;;22.02;12.15;;;;;;;7.21;69.19;100940.63;10535413;28;20048;-64
2021/11/05 18:53:31;;;;;;;20.90;13.45;;;;;;;7.30;69.04;100939.50;10533655;28;20047;-64
2021/11/05 18:58:33;;;;;;;24.33;14.10;;;;;;;7.49;69.07;100938.88;10554521;28;20523;-64
2021/11/05 19:03:35;;;;;;;22.35;12.55;;;;;;;7.56;69.06;100948.22;10555782;28;20048;-64
2021/11/05 19:08:37;;;;;;;19.05;11.45;;;;;;;7.59;69.01;100950.72;10548924;28;20077;-64
2021/11/05 19:13:45;;;;;;;27.80;14.25;;;;;;;7.66;68.79;100952.25;10517519;28;20051;-64
2021/11/05 19:18:53;;;;;;;29.35;17.33;;;;;;;7.75;68.67;100958.91;10518166;28;20060;-64
2021/11/05 19:23:59;;;;;;;28.17;15.13;;;;;;;7.87;68.60;100959.38;10531117;28;20262;-64
2021/11/05 19:29:01;;;;;;;24.67;14.85;;;;;;;7.94;68.32;100960.88;10518194;28;20552;-64
2021/11/05 19:34:03;;;;;;;24.38;16.67;;;;;;;7.92;68.22;100962.69;10547428;28;20058;-63
2021/11/05 19:39:09;;;;;;;33.70;18.38;;;;;;;7.92;68.05;100967.88;10551139;28;20054;-64
2021/11/05 19:44:11;;;;;;;32.83;19.55;;;;;;;7.89;67.80;100968.00;10517646;28;20079;-64
2021/11/05 19:49:14;;;;;;;32.67;16.88;;;;;;;7.79;67.81;100966.56;10515614;28;20051;-64
2021/11/05 19:54:17;;;;;;;18.25;13.00;;;;;;;7.65;68.44;100971.34;10515821;28;20060;-64
2021/11/05 19:59:19;;;;;;;24.60;16.60;;;;;;;7.67;68.53;100976.53;10513658;28;20062;-64
2021/11/05 20:04:21;;;;;;;40.92;22.55;;;;;;;7.77;68.28;100983.16;10514599;28;20330;-64
2021/11/05 20:09:23;;;;;;;77.13;26.90;;;;;;;7.52;68.47;100984.81;10514808;28;20084;-64
2021/11/05 20:14:25;;;;;;;35.25;19.13;;;;;;;7.40;68.47;100988.63;10523270;28;20376;-64
2021/11/05 20:19:28;;;;;;;100.13;16.40;;;;;;;7.30;68.46;101000.22;10516763;28;20055;-65
2021/11/05 20:24:32;;;;;;;19.17;13.85;;;;;;;7.16;68.78;101013.59;10517922;28;20048;-64
2021/11/05 20:29:34;;;;;;;25.20;14.57;;;;;;;7.24;68.83;101016.00;10515583;28;20404;-64
2021/11/05 20:34:36;;;;;;;29.98;16.73;;;;;;;7.32;68.67;101016.66;10524722;28;20142;-64
2021/11/05 20:39:40;;;;;;;27.30;16.42;;;;;;;7.30;68.58;101014.97;10516992;28;20150;-64
2021/11/05 20:44:42;;;;;;;37.40;20.52;;;;;;;7.34;68.45;101024.41;10530111;28;20044;-64
2021/11/05 20:49:44;;;;;;;24.60;16.02;;;;;;;7.30;68.57;101034.06;10532482;28;20052;-64
2021/11/05 20:54:46;;;;;;;38.33;19.70;;;;;;;7.29;68.74;101036.66;10510119;28;20497;-64
2021/11/05 20:59:48;;;;;;;33.90;20.25;;;;;;;7.30;68.60;101038.41;10512596;28;20074;-64
2021/11/05 21:04:51;;;;;;;29.35;17.15;;;;;;;7.32;68.47;101037.47;10512152;28;20109;-64
2021/11/05 21:09:54;;;;;;;34.53;18.77;;;;;;;7.32;68.68;101044.41;10515996;28;20052;-65
2021/11/05 21:14:56;;;;;;;27.08;16.58;;;;;;;7.29;68.53;101044.47;10546418;28;20055;-64
2021/11/05 21:19:58;;;;;;;30.42;16.83;;;;;;;7.33;68.71;101039.16;10544533;28;20380;-64
2021/11/05 21:25:00;;;;;;;23.38;15.02;;;;;;;7.36;68.60;101048.63;10510747;28;20048;-64
2021/11/05 21:30:04;;;;;;;21.92;12.48;;;;;;;7.36;68.73;101054.69;10540625;28;20043;-64
2021/11/05 21:35:07;;;;;;;16.98;12.55;;;;;;;7.39;69.04;101054.59;10526808;28;20636;-64
2021/11/05 21:40:10;;;;;;;22.95;12.77;;;;;;;7.40;69.21;101063.25;10516933;28;20059;-64
2021/11/05 21:45:17;;;;;;;16.45;11.45;;;;;;;7.48;69.45;101069.94;10527187;28;20066;-64
2021/11/05 21:50:19;;;;;;;18.38;12.43;;;;;;;7.53;68.94;101070.66;10510406;28;20492;-64
2021/11/05 21:55:21;;;;;;;19.05;11.48;;;;;;;7.62;68.93;101069.53;10509726;28;20048;-64
2021/11/05 22:00:23;;;;;;;15.13;11.85;;;;;;;7.69;68.60;101074.50;10533167;28;20518;-64
2021/11/05 22:05:25;;;;;;;19.98;11.77;;;;;;;7.60;68.76;101079.13;10525508;28;20416;-64
2021/11/05 22:10:30;;;;;;;14.38;10.68;;;;;;;7.61;68.66;101079.09;10527180;28;20047;-64
2021/11/05 22:15:31;;;;;;;14.07;10.68;;;;;;;7.62;68.56;101088.63;10549640;28;20062;-64
2021/11/05 22:20:33;;;;;;;15.02;11.20;;;;;;;7.56;68.51;101086.19;10527371;28;20409;-64
2021/11/05 22:25:35;;;;;;;15.43;10.65;;;;;;;7.56;68.50;101078.38;10526860;28;20154;-64
2021/11/05 22:30:37;;;;;;;16.85;10.55;;;;;;;7.63;68.54;101090.31;10509883;28;20048;-64
2021/11/05 22:35:39;;;;;;;14.85;10.60;;;;;;;7.65;68.54;101090.28;10509501;28;20048;-64
2021/11/05 22:40:41;;;;;;;16.67;10.60;;;;;;;7.65;68.51;101098.94;10509731;28;20408;-64
2021/11/05 22:45:42;;;;;;;18.27;11.00;;;;;;;7.51;68.76;101108.88;10509427;28;20054;-64
2021/11/05 22:50:49;;;;;;;15.90;11.15;;;;;;;7.40;68.90;101118.75;10509703;28;20054;-64
2021/11/05 22:55:56;;;;;;;18.35;10.32;;;;;;;7.44;68.88;101112.56;10509195;28;20048;-64
2021/11/05 23:01:00;;;;;;;14.55;10.15;;;;;;;7.54;68.79;101111.41;10521489;28;20391;-64